Time;durP1;ratioP1;P1;durP2;ratioP2;P2;SDS_P1;SDS_P2;PMS_P1;PMS_P2;Temp;Humidity;BMP_temperature;BMP_pressure;BME280_temperature;BME280_humidity;BME280_pressure;Samples;Min_cycle;Max_cycle;Signal;HPM_P1;HPM_P2
2024/03/09 00:02:55;;;;;;;12.70;5.85;;;;;;;3.05;56.18;98987.81;10436541;28;20047;-59
2024/03/09 00:08:01;;;;;;;11.05;5.75;;;;;;;3.08;55.81;98979.09;10434535;28;20045;-59
2024/03/09 00:13:04;;;;;;;9.57;5.38;;;;;;;3.05;55.77;98971.47;10436213;28;20107;-60
2024/03/09 00:18:06;;;;;;;16.05;6.28;;;;;;;3.05;55.85;98977.47;10434685;28;20056;-60
2024/03/09 00:23:09;;;;;;;16.20;5.22;;;;;;;3.14;56.04;98988.28;10435210;28;20053;-60
2024/03/09 00:28:12;;;;;;;16.25;5.65;;;;;;;3.21;55.76;98977.63;10435535;28;20053;-60
2024/03/09 00:33:15;;;;;;;15.27;6.28;;;;;;;3.16;55.84;98974.41;10436134;28;20049;-60
2024/03/09 00:38:19;;;;;;;10.38;5.88;;;;;;;3.07;55.75;98965.31;10435478;28;20072;-60
2024/03/09 00:43:21;;;;;;;11.63;4.95;;;;;;;3.14;55.88;98972.78;10434904;28;20064;-60
2024/03/09 00:48:23;;;;;;;14.88;5.55;;;;;;;3.20;56.10;98957.03;10433619;28;20041;-60
2024/03/09 00:53:25;;;;;;;11.48;5.10;;;;;;;3.23;55.98;98972.41;10434716;28;20053;-59
2024/03/09 00:58:29;;;;;;;11.38;4.93;;;;;;;3.15;55.87;98972.75;10433761;28;20047;-60
2024/03/09 01:03:31;;;;;;;10.73;5.15;;;;;;;3.07;56.02;98966.25;10449850;28;20057;-60
2024/03/09 01:08:34;;;;;;;9.40;4.93;;;;;;;3.02;55.91;98964.72;10433893;28;20199;-59
2024/03/09 01:13:36;;;;;;;10.10;4.05;;;;;;;2.96;55.87;98953.81;10434026;28;20155;-59
2024/03/09 01:18:39;;;;;;;9.50;5.00;;;;;;;2.83;56.13;98956.09;10433340;28;20505;-59
2024/03/09 01:23:41;;;;;;;12.13;4.57;;;;;;;2.71;56.17;98946.28;10433587;28;20163;-59
2024/03/09 01:28:45;;;;;;;14.20;4.95;;;;;;;2.57;56.54;98947.78;10431642;28;20156;-59
2024/03/09 01:33:49;;;;;;;9.60;4.88;;;;;;;2.58;56.59;98939.97;10432790;28;20045;-59
2024/03/09 01:38:53;;;;;;;8.93;4.25;;;;;;;2.54;56.75;98943.59;10431450;28;20045;-59
2024/03/09 01:43:55;;;;;;;8.23;4.72;;;;;;;2.49;56.88;98942.97;10431836;28;20052;-59
2024/03/09 01:49:00;;;;;;;11.13;4.78;;;;;;;2.35;57.02;98944.44;10432501;28;20565;-57
2024/03/09 01:54:10;;;;;;;10.30;4.50;;;;;;;2.39;57.18;98938.25;10432735;28;20048;-57
2024/03/09 01:59:13;;;;;;;9.65;4.07;;;;;;;2.41;57.20;98936.44;10431477;28;20072;-59
2024/03/09 02:04:15;;;;;;;9.65;4.70;;;;;;;2.34;57.22;98930.72;10431788;28;20292;-59
2024/03/09 02:09:19;;;;;;;10.25;4.72;;;;;;;2.40;57.39;98925.28;10432308;28;20382;-59
2024/03/09 02:14:22;;;;;;;10.20;4.97;;;;;;;2.48;57.25;98918.06;10430446;28;20080;-60
2024/03/09 02:19:25;;;;;;;8.43;4.68;;;;;;;2.57;57.17;98917.66;10432279;28;20036;-57
2024/03/09 02:24:34;;;;;;;8.18;3.83;;;;;;;2.71;57.20;98899.81;10430771;28;20049;-60
2024/03/09 02:29:36;;;;;;;8.65;4.45;;;;;;;2.79;56.90;98905.50;10432019;28;20051;-60
2024/03/09 02:34:38;;;;;;;8.10;4.30;;;;;;;2.84;56.83;98889.78;10431999;28;20053;-60
2024/03/09 02:39:41;;;;;;;9.23;4.45;;;;;;;2.75;56.62;98885.03;10430686;28;20037;-60
2024/03/09 02:44:43;;;;;;;12.63;4.63;;;;;;;2.73;56.97;98889.44;10431924;28;20147;-60
2024/03/09 02:49:45;;;;;;;7.75;4.35;;;;;;;2.60;56.88;98876.22;10432462;28;20148;-59
2024/03/09 02:54:48;;;;;;;11.68;4.78;;;;;;;2.47;57.27;98869.09;10430058;28;20044;-60
2024/03/09 02:59:50;;;;;;;12.23;4.03;;;;;;;2.57;57.37;98875.53;10431859;28;20029;-60
2024/03/09 03:04:53;;;;;;;10.20;4.68;;;;;;;2.61;57.17;98880.50;10429612;28;20134;-60
2024/03/09 03:09:57;;;;;;;8.80;4.40;;;;;;;2.61;57.17;98877.06;10432011;28;20516;-60
2024/03/09 03:15:01;;;;;;;8.65;4.60;;;;;;;2.60;57.22;98881.38;10439117;28;20069;-60
2024/03/09 03:20:04;;;;;;;8.80;4.75;;;;;;;2.67;56.99;98872.47;10439362;28;20326;-59
2024/03/09 03:25:10;;;;;;;10.27;4.53;;;;;;;2.71;57.18;98871.44;10438060;28;20127;-60
2024/03/09 03:30:16;;;;;;;8.45;4.60;;;;;;;2.77;57.30;98878.06;10438434;28;20048;-60
2024/03/09 03:35:18;;;;;;;9.40;4.57;;;;;;;2.88;57.08;98866.34;10438777;28;20060;-60
2024/03/09 03:40:22;;;;;;;9.35;4.32;;;;;;;2.95;57.08;98857.41;10438748;28;20401;-60
2024/03/09 03:45:26;;;;;;;9.32;4.38;;;;;;;2.94;56.80;98854.91;10436009;28;20056;-60
2024/03/09 03:50:28;;;;;;;9.45;4.32;;;;;;;3.01;56.99;98861.44;10438152;28;20087;-59
2024/03/09 03:55:31;;;;;;;7.97;3.63;;;;;;;3.08;56.89;98855.09;10438065;28;20509;-59
2024/03/09 04:00:34;;;;;;;8.13;4.55;;;;;;;3.10;56.72;98857.59;10436448;28;20543;-59
2024/03/09 04:05:36;;;;;;;11.65;4.75;;;;;;;3.17;56.63;98841.78;10437086;28;20037;-59
2024/03/09 04:10:38;;;;;;;12.70;5.05;;;;;;;3.18;56.73;98852.91;10437015;28;20479;-60
2024/03/09 04:15:41;;;;;;;9.18;4.00;;;;;;;3.20;56.77;98845.94;10435842;28;20087;-58
2024/03/09 04:20:45;;;;;;;11.38;5.10;;;;;;;3.21;56.73;98842.44;10450447;28;20091;-60
2024/03/09 04:25:50;;;;;;;8.68;4.55;;;;;;;3.28;56.54;98833.47;10437116;28;20539;-59
2024/03/09 04:30:52;;;;;;;7.97;3.97;;;;;;;3.23;56.59;98827.72;10435249;28;20132;-60
2024/03/09 04:35:54;;;;;;;8.55;4.60;;;;;;;3.30;56.41;98811.00;10436305;28;20555;-59
2024/03/09 04:40:56;;;;;;;9.13;4.22;;;;;;;3.36;56.43;98821.88;10435361;28;20068;-59
2024/03/09 04:46:00;;;;;;;8.35;4.47;;;;;;;3.36;56.54;98821.88;10435099;28;20048;-59
2024/03/09 04:51:02;;;;;;;12.27;4.82;;;;;;;3.33;56.60;98803.94;10435918;28;20057;-59
2024/03/09 04:56:06;;;;;;;9.57;4.20;;;;;;;3.32;56.72;98809.16;10435440;28;20053;-59
2024/03/09 05:01:08;;;;;;;9.70;4.97;;;;;;;3.41;56.39;98808.75;10434683;28;20083;-59
2024/03/09 05:06:10;;;;;;;9.60;4.13;;;;;;;3.27;56.47;98809.41;10432928;28;20072;-59
2024/03/09 05:11:13;;;;;;;8.85;4.80;;;;;;;3.23;56.72;98804.47;10435228;28;20057;-59
2024/03/09 05:16:16;;;;;;;7.70;4.00;;;;;;;3.20;56.86;98802.00;10434766;28;20060;-59
2024/03/09 05:21:19;;;;;;;9.05;4.95;;;;;;;3.12;56.84;98794.63;10429385;28;20114;-59
2024/03/09 05:26:23;;;;;;;7.93;4.32;;;;;;;3.17;56.93;98807.34;10430467;28;20032;-59
2024/03/09 05:31:27;;;;;;;9.10;4.40;;;;;;;3.15;57.04;98804.84;10429426;28;20052;-57
2024/03/09 05:36:29;;;;;;;10.00;4.63;;;;;;;3.02;57.20;98802.00;10428671;28;20049;-57
2024/03/09 05:41:36;;;;;;;6.65;3.58;;;;;;;2.84;57.65;98808.03;10428199;28;20084;-57
2024/03/09 05:46:38;;;;;;;9.30;4.78;;;;;;;2.99;57.59;98804.69;10430063;28;20041;-57
2024/03/09 05:51:40;;;;;;;7.03;4.05;;;;;;;3.14;57.42;98799.72;10433274;28;20047;-58
2024/03/09 05:56:42;;;;;;;10.20;5.15;;;;;;;3.10;57.09;98793.88;10431186;28;20635;-57
2024/03/09 06:01:44;;;;;;;9.30;4.38;;;;;;;3.12;57.26;98786.88;10431588;28;20045;-59
2024/03/09 06:06:46;;;;;;;8.27;4.00;;;;;;;3.24;57.24;98796.63;10431614;28;20048;-59
2024/03/09 06:11:50;;;;;;;8.27;4.53;;;;;;;3.40;57.15;98800.16;10426804;28;20059;-58
2024/03/09 06:16:57;;;;;;;10.45;4.95;;;;;;;3.46;57.02;98806.75;10430270;28;20045;-60
2024/03/09 06:22:00;;;;;;;10.52;4.95;;;;;;;3.55;57.09;98803.72;10426864;28;20436;-58
2024/03/09 06:27:03;;;;;;;12.95;5.25;;;;;;;3.69;56.86;98802.16;10428275;28;20041;-59
2024/03/09 06:32:05;;;;;;;11.57;5.95;;;;;;;3.69;56.48;98793.53;10424222;28;20373;-59
2024/03/09 06:37:07;;;;;;;11.68;5.13;;;;;;;3.83;56.43;98806.63;10417403;28;20417;-58
2024/03/09 06:42:09;;;;;;;9.70;4.95;;;;;;;3.92;56.50;98798.44;10418251;28;20048;-59
2024/03/09 06:47:13;;;;;;;12.48;5.47;;;;;;;4.10;56.32;98804.41;10431360;28;20573;-58
2024/03/09 06:52:15;;;;;;;11.38;5.40;;;;;;;4.29;56.22;98815.50;10436048;28;20084;-59
2024/03/09 06:57:20;;;;;;;12.57;5.50;;;;;;;4.28;55.98;98806.03;10439553;28;20037;-59
2024/03/09 07:02:23;;;;;;;10.57;5.30;;;;;;;4.40;55.95;98801.06;10439514;28;20049;-58
2024/03/09 07:07:25;;;;;;;8.85;4.20;;;;;;;4.55;55.48;98791.66;10440164;28;20413;-59
2024/03/09 07:12:27;;;;;;;9.30;4.50;;;;;;;4.67;55.31;98791.84;10434443;28;20085;-59
2024/03/09 07:17:31;;;;;;;8.90;4.63;;;;;;;4.82;55.10;98802.28;10433464;28;20052;-59
2024/03/09 07:22:33;;;;;;;10.95;4.93;;;;;;;4.82;55.06;98805.69;10435550;28;20128;-59
2024/03/09 07:27:37;;;;;;;9.43;5.25;;;;;;;4.93;55.16;98803.38;10437758;28;20072;-59
2024/03/09 07:32:39;;;;;;;9.43;4.85;;;;;;;4.86;55.26;98802.03;10436832;28;20079;-51
2024/03/09 07:37:42;;;;;;;9.23;4.55;;;;;;;4.85;54.70;98809.88;10471019;28;20181;-51
2024/03/09 07:42:44;;;;;;;8.48;4.40;;;;;;;4.83;54.58;98817.75;10438212;28;20499;-50
2024/03/09 07:47:49;;;;;;;9.93;3.97;;;;;;;4.86;54.40;98807.19;10439330;28;20053;-53
2024/03/09 07:52:53;;;;;;;8.55;4.63;;;;;;;4.86;54.03;98807.19;10438160;28;20041;-49
2024/03/09 07:57:59;;;;;;;8.20;4.15;;;;;;;5.17;54.01;98786.47;10468952;28;20649;-50
2024/03/09 08:03:20;;;;;;;8.35;4.25;;;;;;;5.47;53.67;98782.13;10436898;28;20060;-48
2024/03/09 08:08:23;;;;;;;8.07;4.05;;;;;;;5.54;52.19;98777.44;10436021;28;20526;-52
2024/03/09 08:13:26;;;;;;;8.60;4.57;;;;;;;6.03;53.02;98778.84;10435605;28;20523;-53
2024/03/09 08:18:28;;;;;;;10.70;4.90;;;;;;;6.59;51.63;98783.22;10437568;28;20210;-54
2024/03/09 08:23:31;;;;;;;11.18;4.18;;;;;;;6.83;51.26;98794.69;10436673;28;20053;-52
2024/03/09 08:28:34;;;;;;;9.10;4.72;;;;;;;6.60;50.19;98782.28;10438139;28;20136;-51
2024/03/09 08:33:36;;;;;;;9.93;4.88;;;;;;;7.06;50.63;98777.66;10436354;28;20512;-52
2024/03/09 08:38:39;;;;;;;11.18;4.63;;;;;;;7.46;49.77;98775.91;10436554;28;20423;-48
2024/03/09 08:43:41;;;;;;;10.13;4.90;;;;;;;7.13;49.55;98756.34;10434468;28;20501;-50
2024/03/09 08:48:43;;;;;;;9.13;4.65;;;;;;;7.49;49.49;98755.72;10436197;28;20092;-51
2024/03/09 08:53:46;;;;;;;9.80;5.00;;;;;;;7.63;48.45;98758.25;10433568;28;20041;-52
2024/03/09 08:58:48;;;;;;;10.27;4.70;;;;;;;7.95;48.30;98748.31;10435916;28;20493;-50
2024/03/09 09:03:51;;;;;;;8.77;4.57;;;;;;;8.26;48.10;98757.50;10434653;28;20033;-50
2024/03/09 09:08:53;;;;;;;10.57;4.78;;;;;;;8.06;47.81;98742.38;10434486;28;20057;-50
2024/03/09 09:13:55;;;;;;;10.18;4.97;;;;;;;8.28;47.79;98742.59;10435006;28;20048;-49
2024/03/09 09:18:58;;;;;;;10.45;4.32;;;;;;;8.17;47.69;98732.06;10466827;28;20102;-50
2024/03/09 09:24:02;;;;;;;9.95;4.72;;;;;;;8.45;46.97;98718.78;10466790;28;20456;-54
2024/03/09 09:29:04;;;;;;;8.93;4.38;;;;;;;8.43;46.92;98724.09;10416126;28;20083;-53
2024/03/09 09:34:10;;;;;;;10.13;4.15;;;;;;;8.35;46.66;98721.22;10465855;28;20053;-54
2024/03/09 09:39:14;;;;;;;10.48;5.28;;;;;;;8.49;46.97;98707.22;10434654;28;20053;-54
2024/03/09 09:44:17;;;;;;;7.40;3.80;;;;;;;8.77;46.40;98697.31;10433787;28;20638;-50
2024/03/09 09:49:22;;;;;;;11.90;5.53;;;;;;;8.87;46.11;98700.13;10466383;28;20055;-50
2024/03/09 09:54:26;;;;;;;9.25;4.60;;;;;;;8.94;45.66;98690.88;10432084;28;20135;-54
2024/03/09 09:59:31;;;;;;;9.50;4.38;;;;;;;8.82;45.67;98694.38;10430679;28;20132;-51
2024/03/09 10:04:37;;;;;;;9.82;4.65;;;;;;;9.21;46.21;98670.63;10432550;28;20508;-52
2024/03/09 10:09:40;;;;;;;10.88;5.85;;;;;;;9.31;46.08;98665.53;10431104;28;20056;-52
2024/03/09 10:14:42;;;;;;;7.88;4.00;;;;;;;9.56;45.55;98671.41;10430995;28;20069;-54
2024/03/09 10:19:44;;;;;;;7.65;4.35;;;;;;;9.63;45.51;98664.78;10430824;28;20107;-53
2024/03/09 10:24:58;;;;;;;7.85;4.55;;;;;;;9.50;44.74;98660.63;10430204;28;20048;-55
2024/03/09 10:30:15;;;;;;;9.68;5.07;;;;;;;9.75;43.97;98638.75;10432375;28;20090;-55
2024/03/09 10:35:17;;;;;;;12.10;4.53;;;;;;;10.11;45.46;98635.88;10430341;28;20049;-53
2024/03/09 10:40:20;;;;;;;9.98;4.85;;;;;;;10.25;44.96;98619.97;10428822;28;20068;-56
2024/03/09 10:45:29;;;;;;;9.07;4.78;;;;;;;10.17;44.65;98615.34;10426796;28;20866;-53
2024/03/09 10:51:27;;;;;;;8.55;4.43;;;;;;;10.37;43.15;98611.97;10425746;28;20048;-52
2024/03/09 10:56:31;;;;;;;7.82;4.32;;;;;;;10.30;43.91;98604.72;10410135;28;20119;-55
2024/03/09 11:01:34;;;;;;;9.82;4.80;;;;;;;10.52;44.58;98603.88;10427937;28;20131;-54
2024/03/09 11:06:36;;;;;;;9.27;4.93;;;;;;;10.36;44.44;98596.41;10428112;28;20049;-54
2024/03/09 11:11:39;;;;;;;7.95;4.43;;;;;;;10.12;44.30;98600.97;10427397;28;20053;-55
2024/03/09 11:16:42;;;;;;;9.50;4.05;;;;;;;10.21;44.92;98585.41;10425798;28;20041;-55
2024/03/09 11:21:48;;;;;;;12.32;5.60;;;;;;;10.31;44.34;98577.66;10426564;28;20040;-50
2024/03/09 11:26:57;;;;;;;10.35;3.92;;;;;;;10.44;44.13;98571.31;10427460;28;20041;-51
2024/03/09 11:32:10;;;;;;;9.23;4.40;;;;;;;10.57;43.02;98560.69;10462103;28;20032;-50
2024/03/09 11:37:13;;;;;;;8.50;4.50;;;;;;;10.62;44.19;98550.72;10434094;28;20509;-53
2024/03/09 11:42:18;;;;;;;10.25;4.65;;;;;;;10.84;44.19;98542.75;10416672;28;20060;-49
2024/03/09 11:47:20;;;;;;;11.15;4.95;;;;;;;11.00;43.66;98535.31;10427021;28;20084;-54
2024/03/09 11:52:26;;;;;;;10.38;5.05;;;;;;;11.17;43.66;98518.22;10432946;28;20350;-52
2024/03/09 11:57:31;;;;;;;8.15;4.30;;;;;;;11.27;43.86;98509.44;10429768;28;20051;-54
2024/03/09 12:02:37;;;;;;;10.23;5.10;;;;;;;11.37;43.02;98508.66;10428110;28;20045;-53
2024/03/09 12:07:39;;;;;;;11.23;5.32;;;;;;;11.48;42.77;98493.69;10431041;28;20560;-52
2024/03/09 12:12:45;;;;;;;12.50;4.95;;;;;;;11.65;41.70;98493.06;10431016;28;20072;-53
2024/03/09 12:17:47;;;;;;;9.40;4.63;;;;;;;11.72;42.47;98493.38;10433326;28;20342;-51
2024/03/09 12:22:49;;;;;;;8.23;4.50;;;;;;;11.82;42.10;98474.13;10431567;28;20486;-54
2024/03/09 12:27:51;;;;;;;9.13;4.40;;;;;;;11.77;42.38;98478.06;10431579;28;21275;-50
2024/03/09 12:32:54;;;;;;;8.27;4.65;;;;;;;11.88;42.24;98477.97;10431992;28;20497;-53
2024/03/09 12:37:56;;;;;;;10.10;4.72;;;;;;;12.03;41.50;98463.50;10431678;28;20397;-51
2024/03/09 12:42:58;;;;;;;11.27;5.50;;;;;;;12.24;41.80;98447.66;10430199;28;20130;-51
2024/03/09 12:48:01;;;;;;;8.73;4.07;;;;;;;12.25;40.65;98426.56;10429015;28;20124;-54
2024/03/09 12:53:04;;;;;;;8.35;4.53;;;;;;;12.47;41.44;98422.84;10430779;28;20052;-55
2024/03/09 12:58:11;;;;;;;8.05;4.35;;;;;;;12.65;40.16;98418.53;10429128;28;20052;-51
2024/03/09 13:03:20;;;;;;;9.55;4.18;;;;;;;13.00;41.00;98420.53;10429801;28;20059;-56
2024/03/09 13:08:26;;;;;;;9.93;4.57;;;;;;;12.95;40.65;98426.19;10431094;28;20033;-51
2024/03/09 13:13:29;;;;;;;8.52;4.30;;;;;;;13.19;40.67;98415.22;10430698;28;20049;-50
2024/03/09 13:18:36;;;;;;;9.50;4.68;;;;;;;13.27;40.75;98415.31;10430066;28;20037;-55
2024/03/09 13:23:38;;;;;;;8.07;4.28;;;;;;;13.39;40.45;98395.78;10460249;28;20463;-54
2024/03/09 13:28:41;;;;;;;8.90;4.80;;;;;;;13.27;39.80;98391.69;10431348;28;20049;-54
2024/03/09 13:33:45;;;;;;;9.10;4.55;;;;;;;13.33;40.64;98385.84;10429431;28;20053;-50
2024/03/09 13:38:47;;;;;;;10.85;4.28;;;;;;;13.33;39.50;98385.84;10429660;28;20056;-54
2024/03/09 13:43:50;;;;;;;9.95;4.40;;;;;;;13.48;39.94;98376.53;10429292;28;20540;-53
2024/03/09 13:48:52;;;;;;;9.85;4.63;;;;;;;13.42;39.42;98374.47;10429639;28;20053;-52
2024/03/09 13:53:54;;;;;;;8.60;4.20;;;;;;;13.54;39.74;98361.00;10428827;28;20048;-56
2024/03/09 13:58:56;;;;;;;9.88;4.70;;;;;;;13.71;39.74;98349.72;10427152;28;20520;-56
2024/03/09 14:03:58;;;;;;;8.43;4.82;;;;;;;13.95;39.84;98337.75;10429076;28;20081;-54
2024/03/09 14:09:03;;;;;;;9.80;4.18;;;;;;;13.53;38.90;98355.91;10429259;28;20049;-56
2024/03/09 14:14:08;;;;;;;9.63;4.90;;;;;;;13.58;40.14;98354.47;10428078;28;20135;-52
2024/03/09 14:19:11;;;;;;;8.48;3.92;;;;;;;13.57;39.99;98350.22;10460961;28;20059;-55
2024/03/09 14:24:13;;;;;;;7.53;3.80;;;;;;;13.45;39.84;98356.66;10431398;28;20056;-52
2024/03/09 14:29:15;;;;;;;7.03;3.60;;;;;;;13.53;39.67;98351.50;10432258;28;20037;-53
2024/03/09 14:34:22;;;;;;;7.82;4.18;;;;;;;13.58;39.34;98348.41;10430679;28;20564;-50
2024/03/09 14:39:24;;;;;;;13.45;7.60;;;;;;;13.78;39.44;98345.50;10430724;28;20150;-53
2024/03/09 14:44:29;;;;;;;6.93;3.75;;;;;;;13.90;39.01;98332.13;10431093;28;20057;-56
2024/03/09 14:49:31;;;;;;;7.80;4.05;;;;;;;14.03;39.19;98324.66;10429232;28;20051;-51
2024/03/09 14:54:33;;;;;;;7.65;4.15;;;;;;;13.88;39.32;98324.38;10430721;28;20480;-52
2024/03/09 14:59:36;;;;;;;7.43;4.00;;;;;;;13.87;39.30;98314.84;10429668;28;20121;-54
2024/03/09 15:04:38;;;;;;;9.38;4.30;;;;;;;13.62;39.38;98316.44;10430958;28;20037;-56
2024/03/09 15:09:41;;;;;;;6.88;3.80;;;;;;;13.38;39.54;98321.41;10438813;28;20140;-53
2024/03/09 15:14:45;;;;;;;7.50;3.83;;;;;;;13.36;39.58;98309.41;10420623;28;20406;-54
2024/03/09 15:19:50;;;;;;;8.25;4.07;;;;;;;13.39;39.82;98309.13;10437126;28;20504;-53
2024/03/09 15:24:53;;;;;;;9.10;4.47;;;;;;;13.27;39.94;98312.94;10437726;28;20048;-55
2024/03/09 15:29:55;;;;;;;7.47;4.03;;;;;;;13.29;39.83;98314.41;10439203;28;20053;-53
2024/03/09 15:34:58;;;;;;;7.53;3.70;;;;;;;13.29;40.30;98311.78;10438600;28;20177;-54
2024/03/09 15:40:04;;;;;;;7.82;4.28;;;;;;;13.16;40.51;98315.75;10436405;28;20051;-54
2024/03/09 15:45:08;;;;;;;8.95;4.05;;;;;;;13.19;41.12;98308.41;10433890;28;20048;-53
2024/03/09 15:50:15;;;;;;;7.40;3.78;;;;;;;13.32;41.29;98308.03;10429361;28;20045;-53
2024/03/09 15:55:25;;;;;;;7.70;3.80;;;;;;;13.34;41.23;98300.84;10430636;28;20496;-55
2024/03/09 16:00:29;;;;;;;6.35;3.13;;;;;;;13.17;40.87;98297.22;10432637;28;20053;-53
2024/03/09 16:05:32;;;;;;;6.05;3.03;;;;;;;12.99;40.79;98285.84;10433079;28;20048;-52
2024/03/09 16:10:34;;;;;;;8.85;3.95;;;;;;;12.98;40.87;98292.91;10430711;28;20687;-54
2024/03/09 16:15:40;;;;;;;9.35;3.30;;;;;;;12.86;41.00;98291.44;10428703;28;20052;-53
2024/03/09 16:20:43;;;;;;;7.82;3.55;;;;;;;12.74;40.55;98289.97;10431024;28;20377;-50
2024/03/09 16:25:47;;;;;;;7.30;4.03;;;;;;;12.68;41.48;98293.19;10431209;28;20128;-52
2024/03/09 16:30:50;;;;;;;7.22;3.92;;;;;;;12.54;42.33;98298.06;10432028;28;20052;-54
2024/03/09 16:35:52;;;;;;;10.30;4.18;;;;;;;12.49;42.64;98303.75;10432313;28;20443;-53
2024/03/09 16:40:55;;;;;;;8.63;3.88;;;;;;;12.42;42.42;98305.28;10431187;28;20110;-54
2024/03/09 16:45:58;;;;;;;7.53;3.65;;;;;;;12.30;42.25;98300.34;10425581;28;20072;-52
2024/03/09 16:51:00;;;;;;;7.90;3.97;;;;;;;12.09;42.23;98303.94;10427801;28;20052;-51
2024/03/09 16:56:03;;;;;;;7.13;3.63;;;;;;;11.83;42.08;98304.66;10427546;28;20088;-54
2024/03/09 17:01:06;;;;;;;7.35;3.53;;;;;;;11.78;42.43;98305.09;10427433;28;20485;-52
2024/03/09 17:06:08;;;;;;;8.30;3.33;;;;;;;11.73;42.79;98298.59;10428162;28;20627;-53
2024/03/09 17:11:13;;;;;;;7.78;3.70;;;;;;;11.67;42.66;98301.78;10424213;28;20513;-53
2024/03/09 17:16:17;;;;;;;7.80;3.50;;;;;;;11.64;42.94;98304.69;10428867;28;20425;-52
2024/03/09 17:21:24;;;;;;;8.35;3.83;;;;;;;11.64;42.92;98307.31;10427511;28;20613;-55
2024/03/09 17:26:27;;;;;;;9.48;3.85;;;;;;;11.65;42.91;98320.25;10428253;28;20048;-53
2024/03/09 17:31:38;;;;;;;7.30;4.18;;;;;;;11.66;42.58;98327.13;10427275;28;20045;-54
2024/03/09 17:36:41;;;;;;;7.53;4.28;;;;;;;11.65;43.37;98337.75;10429681;28;20056;-54
2024/03/09 17:41:43;;;;;;;12.32;5.22;;;;;;;11.53;43.45;98336.22;10428475;28;20047;-54
2024/03/09 17:46:45;;;;;;;9.70;4.43;;;;;;;11.45;43.79;98333.44;10429472;28;20056;-52
2024/03/09 17:51:47;;;;;;;9.73;4.93;;;;;;;11.39;44.00;98332.22;10427993;28;20040;-50
2024/03/09 17:56:49;;;;;;;10.45;4.70;;;;;;;11.37;44.04;98341.16;10427154;28;20134;-55
2024/03/09 18:01:53;;;;;;;8.65;4.97;;;;;;;11.32;44.02;98338.94;10427857;28;20056;-52
2024/03/09 18:06:57;;;;;;;12.32;4.70;;;;;;;11.18;44.30;98340.16;10428861;28;20496;-53
2024/03/09 18:11:59;;;;;;;9.70;4.28;;;;;;;11.20;44.14;98335.59;10428442;28;20401;-53
2024/03/09 18:17:05;;;;;;;7.63;3.80;;;;;;;11.11;44.46;98333.78;10427801;28;20075;-55
2024/03/09 18:22:08;;;;;;;7.28;3.60;;;;;;;11.14;44.43;98328.28;10428500;28;20317;-55
2024/03/09 18:27:11;;;;;;;8.07;4.00;;;;;;;11.10;44.97;98326.91;10425755;28;20045;-54
2024/03/09 18:32:14;;;;;;;10.05;4.25;;;;;;;10.98;45.01;98327.94;10409782;28;20069;-59
2024/03/09 18:37:18;;;;;;;7.65;3.90;;;;;;;10.88;45.10;98323.63;10426537;28;20052;-59
2024/03/09 18:42:22;;;;;;;9.75;4.22;;;;;;;10.81;44.91;98317.25;10428180;28;20574;-59
2024/03/09 18:47:24;;;;;;;8.02;4.05;;;;;;;10.76;45.08;98309.84;10436294;28;20425;-59
2024/03/09 18:52:26;;;;;;;7.60;4.10;;;;;;;10.75;45.56;98309.94;10430990;28;20940;-59
2024/03/09 18:57:29;;;;;;;10.30;5.38;;;;;;;10.69;45.80;98319.16;10431941;28;20052;-59
2024/03/09 19:02:32;;;;;;;13.65;6.22;;;;;;;10.64;46.27;98302.22;10432348;28;20041;-59
2024/03/09 19:07:35;;;;;;;12.48;4.82;;;;;;;10.59;46.48;98304.38;10429822;28;20060;-59
2024/03/09 19:12:37;;;;;;;9.07;4.72;;;;;;;10.53;46.21;98290.06;10429032;28;20071;-59
2024/03/09 19:17:41;;;;;;;9.32;4.57;;;;;;;10.52;46.30;98291.03;10433034;28;20119;-59
2024/03/09 19:22:43;;;;;;;10.38;5.10;;;;;;;10.39;46.54;98290.41;10434460;28;20071;-59
2024/03/09 19:27:46;;;;;;;8.93;4.82;;;;;;;10.32;46.64;98289.25;10434075;28;20049;-59
2024/03/09 19:32:49;;;;;;;9.57;4.72;;;;;;;10.32;46.62;98281.41;10433555;28;20135;-59
2024/03/09 19:37:57;;;;;;;9.05;4.45;;;;;;;10.24;46.83;98276.00;10465664;28;20053;-59
2024/03/09 19:43:00;;;;;;;8.35;4.53;;;;;;;10.07;47.00;98260.94;10433454;28;20134;-59
2024/03/09 19:48:03;;;;;;;8.48;4.40;;;;;;;10.02;47.24;98268.31;10432319;28;20045;-59
2024/03/09 19:53:06;;;;;;;11.25;5.60;;;;;;;10.01;47.32;98267.50;10431405;28;20078;-60
2024/03/09 19:58:09;;;;;;;8.95;5.03;;;;;;;9.98;47.39;98256.47;10398932;28;20053;-59
2024/03/09 20:03:13;;;;;;;10.60;4.68;;;;;;;9.95;47.43;98248.91;10433018;28;20041;-59
2024/03/09 20:08:15;;;;;;;13.27;5.03;;;;;;;10.01;47.19;98251.03;10433150;28;20048;-60
2024/03/09 20:13:17;;;;;;;8.07;3.90;;;;;;;9.97;47.41;98247.81;10432724;28;20061;-59
2024/03/09 20:18:20;;;;;;;7.40;4.00;;;;;;;9.92;47.24;98242.16;10432114;28;20044;-59
2024/03/09 20:23:22;;;;;;;6.13;3.47;;;;;;;9.88;47.33;98237.31;10433052;28;20053;-59
2024/03/09 20:28:25;;;;;;;7.95;3.88;;;;;;;9.91;47.31;98243.09;10432875;28;20040;-59
2024/03/09 20:33:28;;;;;;;9.07;4.13;;;;;;;9.94;47.27;98232.41;10432241;28;20048;-59
2024/03/09 20:38:31;;;;;;;6.93;3.30;;;;;;;9.90;47.03;98233.63;10412667;28;20216;-59
2024/03/09 20:43:34;;;;;;;7.72;3.90;;;;;;;9.94;47.08;98236.81;10425669;28;20048;-59
2024/03/09 20:48:36;;;;;;;6.70;3.60;;;;;;;9.91;47.10;98231.84;10462904;28;20047;-59
2024/03/09 20:53:50;;;;;;;8.65;4.05;;;;;;;9.83;47.27;98218.63;10430092;28;20048;-59
2024/03/09 20:58:54;;;;;;;6.75;3.63;;;;;;;9.82;47.21;98214.34;10415449;28;20053;-59
2024/03/09 21:03:56;;;;;;;7.60;4.07;;;;;;;9.82;47.31;98217.78;10432525;28;20033;-59
2024/03/09 21:08:58;;;;;;;7.53;3.95;;;;;;;9.86;47.48;98220.94;10431434;28;20409;-59
2024/03/09 21:14:01;;;;;;;8.50;4.38;;;;;;;9.81;47.53;98217.91;10427920;28;20191;-59
2024/03/09 21:19:04;;;;;;;7.95;4.05;;;;;;;9.70;47.31;98207.53;10424361;28;20061;-59
2024/03/09 21:24:07;;;;;;;8.13;3.72;;;;;;;9.70;47.27;98197.91;10429359;28;20052;-59
2024/03/09 21:29:09;;;;;;;9.35;4.00;;;;;;;9.52;47.27;98195.00;10429909;28;20052;-59
2024/03/09 21:34:12;;;;;;;7.82;3.35;;;;;;;9.50;47.29;98191.69;10429603;28;20231;-59
2024/03/09 21:39:15;;;;;;;8.70;4.25;;;;;;;9.47;47.56;98186.75;10465257;28;20130;-59
2024/03/09 21:44:18;;;;;;;8.02;3.90;;;;;;;9.35;47.57;98189.53;10430598;28;20041;-59
2024/03/09 21:49:20;;;;;;;7.20;3.70;;;;;;;9.31;47.58;98178.53;10429939;28;20391;-59
2024/03/09 21:54:22;;;;;;;6.47;4.10;;;;;;;9.28;47.61;98175.34;10425765;28;20099;-59
2024/03/09 21:59:25;;;;;;;8.50;3.17;;;;;;;9.34;47.71;98164.41;10430926;28;20045;-59
2024/03/09 22:04:27;;;;;;;7.32;4.28;;;;;;;9.25;48.01;98150.34;10430641;28;20476;-59
2024/03/09 22:09:32;;;;;;;7.38;3.60;;;;;;;9.21;47.86;98156.78;10431592;28;20053;-59
2024/03/09 22:14:39;;;;;;;7.32;3.53;;;;;;;9.21;47.87;98158.53;10428855;28;20188;-59
2024/03/09 22:19:42;;;;;;;8.93;3.95;;;;;;;9.20;47.89;98155.09;10430709;28;20044;-59
2024/03/09 22:24:47;;;;;;;11.88;3.95;;;;;;;9.19;47.73;98148.25;10429849;28;20350;-58
2024/03/09 22:29:49;;;;;;;8.48;3.70;;;;;;;9.14;47.71;98137.34;10432102;28;20045;-59
2024/03/09 22:34:53;;;;;;;7.05;3.35;;;;;;;9.12;48.03;98134.03;10432284;28;20037;-59
2024/03/09 22:39:57;;;;;;;7.13;3.63;;;;;;;9.12;48.23;98144.47;10432626;28;20049;-59
2024/03/09 22:45:02;;;;;;;8.02;3.97;;;;;;;9.01;48.22;98144.53;10431970;28;20124;-59
2024/03/09 22:50:08;;;;;;;7.63;3.75;;;;;;;8.91;48.06;98145.41;10430974;28;20490;-59
2024/03/09 22:55:10;;;;;;;10.13;4.50;;;;;;;8.74;48.12;98134.56;10428039;28;20555;-59
2024/03/09 23:05:27;;;;;;;7.90;3.63;;;;;;;8.55;48.33;98123.13;10431536;28;20132;-59
2024/03/09 23:10:29;;;;;;;6.63;3.45;;;;;;;8.47;48.51;98126.34;10431008;28;20049;-59
2024/03/09 23:15:34;;;;;;;7.93;3.83;;;;;;;8.32;48.71;98116.31;10431782;28;20068;-59
2024/03/09 23:20:36;;;;;;;8.82;4.05;;;;;;;8.17;49.07;98109.69;10431144;28;20052;-59
2024/03/09 23:25:38;;;;;;;7.43;3.45;;;;;;;8.14;49.18;98104.75;10431532;28;20049;-59
2024/03/09 23:30:40;;;;;;;7.93;3.90;;;;;;;8.09;48.96;98104.25;10438967;28;20432;-59
2024/03/09 23:35:42;;;;;;;8.02;3.88;;;;;;;8.09;49.15;98104.25;10437678;28;20041;-59
2024/03/09 23:40:44;;;;;;;8.10;4.00;;;;;;;7.94;49.40;98112.31;10435667;28;20068;-59